sensor_id;sensor_type;location;lat;lon;timestamp;P1;durP1;ratioP1;P2;durP2;ratioP2
57217;SDS011;43078;52.972;6.482;2023-03-08T00:02:25;2.50;;;0.95;;
57217;SDS011;43078;52.972;6.482;2023-03-08T00:59:50;2.15;;;0.90;;
57217;SDS011;43078;52.972;6.482;2023-03-08T01:02:16;2.47;;;0.90;;
57217;SDS011;43078;52.972;6.482;2023-03-08T01:04:42;1.90;;;1.00;;
57217;SDS011;43078;52.972;6.482;2023-03-08T01:07:07;2.17;;;0.90;;
57217;SDS011;43078;52.972;6.482;2023-03-08T01:09:33;1.55;;;0.85;;
57217;SDS011;43078;52.972;6.482;2023-03-08T01:11:58;3.30;;;0.93;;
57217;SDS011;43078;52.972;6.482;2023-03-08T01:14:24;3.05;;;0.80;;
57217;SDS011;43078;52.972;6.482;2023-03-08T01:16:50;4.88;;;1.08;;
57217;SDS011;43078;52.972;6.482;2023-03-08T01:19:15;2.67;;;0.95;;
57217;SDS011;43078;52.972;6.482;2023-03-08T01:21:41;3.33;;;1.00;;
57217;SDS011;43078;52.972;6.482;2023-03-08T01:24:06;2.35;;;0.90;;
57217;SDS011;43078;52.972;6.482;2023-03-08T01:26:32;4.95;;;1.08;;
57217;SDS011;43078;52.972;6.482;2023-03-08T01:28:58;2.83;;;1.00;;
57217;SDS011;43078;52.972;6.482;2023-03-08T01:31:24;2.45;;;0.80;;
57217;SDS011;43078;52.972;6.482;2023-03-08T01:33:52;5.18;;;0.90;;
57217;SDS011;43078;52.972;6.482;2023-03-08T01:36:19;2.63;;;1.15;;
57217;SDS011;43078;52.972;6.482;2023-03-08T01:38:47;2.70;;;0.82;;
57217;SDS011;43078;52.972;6.482;2023-03-08T01:41:15;1.42;;;0.85;;
57217;SDS011;43078;52.972;6.482;2023-03-08T01:43:43;3.15;;;0.90;;
57217;SDS011;43078;52.972;6.482;2023-03-08T01:48:40;2.08;;;0.80;;
57217;SDS011;43078;52.972;6.482;2023-03-08T01:51:10;3.85;;;1.00;;
57217;SDS011;43078;52.972;6.482;2023-03-08T01:53:38;5.07;;;1.20;;
57217;SDS011;43078;52.972;6.482;2023-03-08T01:56:07;3.58;;;1.00;;
57217;SDS011;43078;52.972;6.482;2023-03-08T01:58:35;2.17;;;0.80;;
57217;SDS011;43078;52.972;6.482;2023-03-08T02:01:02;2.30;;;0.98;;
57217;SDS011;43078;52.972;6.482;2023-03-08T02:03:27;3.40;;;1.02;;
57217;SDS011;43078;52.972;6.482;2023-03-08T02:05:53;3.80;;;0.80;;
57217;SDS011;43078;52.972;6.482;2023-03-08T02:08:19;2.97;;;0.93;;
57217;SDS011;43078;52.972;6.482;2023-03-08T02:10:44;4.30;;;1.10;;
57217;SDS011;43078;52.972;6.482;2023-03-08T02:13:10;5.03;;;1.10;;
57217;SDS011;43078;52.972;6.482;2023-03-08T02:15:36;2.40;;;1.10;;
57217;SDS011;43078;52.972;6.482;2023-03-08T02:18:02;1.90;;;0.88;;
57217;SDS011;43078;52.972;6.482;2023-03-08T02:20:29;2.53;;;1.05;;
57217;SDS011;43078;52.972;6.482;2023-03-08T02:23:14;3.35;;;1.00;;
57217;SDS011;43078;52.972;6.482;2023-03-08T02:25:41;2.30;;;0.93;;
57217;SDS011;43078;52.972;6.482;2023-03-08T02:28:16;5.18;;;1.20;;
57217;SDS011;43078;52.972;6.482;2023-03-08T02:30:42;1.83;;;0.95;;
57217;SDS011;43078;52.972;6.482;2023-03-08T02:33:08;3.17;;;1.00;;
57217;SDS011;43078;52.972;6.482;2023-03-08T02:35:34;3.50;;;1.00;;
57217;SDS011;43078;52.972;6.482;2023-03-08T02:38:00;4.32;;;1.10;;
57217;SDS011;43078;52.972;6.482;2023-03-08T02:40:25;4.85;;;1.30;;
57217;SDS011;43078;52.972;6.482;2023-03-08T02:42:51;2.53;;;1.00;;
57217;SDS011;43078;52.972;6.482;2023-03-08T02:45:17;2.63;;;1.10;;
57217;SDS011;43078;52.972;6.482;2023-03-08T02:47:42;2.72;;;1.13;;
57217;SDS011;43078;52.972;6.482;2023-03-08T02:50:08;2.33;;;1.10;;
57217;SDS011;43078;52.972;6.482;2023-03-08T02:52:34;3.47;;;1.00;;
57217;SDS011;43078;52.972;6.482;2023-03-08T02:55:00;1.65;;;0.85;;
57217;SDS011;43078;52.972;6.482;2023-03-08T02:57:25;3.00;;;1.17;;
57217;SDS011;43078;52.972;6.482;2023-03-08T02:59:51;3.17;;;1.00;;
57217;SDS011;43078;52.972;6.482;2023-03-08T03:02:16;2.75;;;1.10;;
57217;SDS011;43078;52.972;6.482;2023-03-08T03:04:42;4.80;;;1.25;;
57217;SDS011;43078;52.972;6.482;2023-03-08T03:07:08;1.83;;;1.05;;
57217;SDS011;43078;52.972;6.482;2023-03-08T03:09:33;3.42;;;1.30;;
57217;SDS011;43078;52.972;6.482;2023-03-08T03:11:59;4.68;;;1.40;;
57217;SDS011;43078;52.972;6.482;2023-03-08T03:14:33;4.07;;;1.30;;
57217;SDS011;43078;52.972;6.482;2023-03-08T03:16:59;4.63;;;1.30;;
57217;SDS011;43078;52.972;6.482;2023-03-08T03:19:25;4.13;;;1.10;;
57217;SDS011;43078;52.972;6.482;2023-03-08T03:21:50;3.00;;;1.40;;
57217;SDS011;43078;52.972;6.482;2023-03-08T03:24:16;3.95;;;1.35;;
57217;SDS011;43078;52.972;6.482;2023-03-08T03:26:41;2.88;;;1.30;;
57217;SDS011;43078;52.972;6.482;2023-03-08T03:29:07;4.90;;;1.30;;
57217;SDS011;43078;52.972;6.482;2023-03-08T03:31:33;2.22;;;1.13;;
57217;SDS011;43078;52.972;6.482;2023-03-08T03:33:59;2.90;;;1.48;;
57217;SDS011;43078;52.972;6.482;2023-03-08T03:36:25;3.75;;;1.20;;
57217;SDS011;43078;52.972;6.482;2023-03-08T03:38:50;4.07;;;1.35;;
57217;SDS011;43078;52.972;6.482;2023-03-08T03:41:17;3.65;;;1.40;;
57217;SDS011;43078;52.972;6.482;2023-03-08T03:43:45;4.10;;;1.20;;
57217;SDS011;43078;52.972;6.482;2023-03-08T03:46:11;3.33;;;1.30;;
57217;SDS011;43078;52.972;6.482;2023-03-08T03:48:39;3.13;;;1.30;;
57217;SDS011;43078;52.972;6.482;2023-03-08T03:51:05;4.18;;;1.52;;
57217;SDS011;43078;52.972;6.482;2023-03-08T03:53:36;2.78;;;1.38;;
57217;SDS011;43078;52.972;6.482;2023-03-08T03:56:21;3.25;;;1.38;;
57217;SDS011;43078;52.972;6.482;2023-03-08T03:58:48;4.93;;;1.60;;
57217;SDS011;43078;52.972;6.482;2023-03-08T04:01:16;2.90;;;1.50;;
57217;SDS011;43078;52.972;6.482;2023-03-08T04:03:45;3.95;;;1.50;;
57217;SDS011;43078;52.972;6.482;2023-03-08T04:08:44;3.15;;;1.52;;
57217;SDS011;43078;52.972;6.482;2023-03-08T04:11:12;4.82;;;1.70;;
57217;SDS011;43078;52.972;6.482;2023-03-08T04:13:39;3.17;;;1.40;;
57217;SDS011;43078;52.972;6.482;2023-03-08T04:18:34;3.35;;;1.40;;
57217;SDS011;43078;52.972;6.482;2023-03-08T04:21:00;6.25;;;1.70;;
57217;SDS011;43078;52.972;6.482;2023-03-08T04:23:26;6.30;;;1.52;;
57217;SDS011;43078;52.972;6.482;2023-03-08T04:25:51;5.00;;;1.70;;
57217;SDS011;43078;52.972;6.482;2023-03-08T04:28:17;5.22;;;1.58;;
57217;SDS011;43078;52.972;6.482;2023-03-08T04:30:43;3.25;;;1.67;;
57217;SDS011;43078;52.972;6.482;2023-03-08T04:33:08;4.88;;;1.50;;
57217;SDS011;43078;52.972;6.482;2023-03-08T04:35:34;3.10;;;1.48;;
57217;SDS011;43078;52.972;6.482;2023-03-08T04:37:59;5.07;;;1.70;;
57217;SDS011;43078;52.972;6.482;2023-03-08T04:40:25;4.45;;;1.70;;
57217;SDS011;43078;52.972;6.482;2023-03-08T04:42:51;6.57;;;2.08;;
57217;SDS011;43078;52.972;6.482;2023-03-08T04:45:17;5.78;;;2.05;;
57217;SDS011;43078;52.972;6.482;2023-03-08T04:47:55;4.80;;;2.00;;
57217;SDS011;43078;52.972;6.482;2023-03-08T04:50:30;4.95;;;2.40;;
57217;SDS011;43078;52.972;6.482;2023-03-08T04:53:02;4.80;;;2.10;;
57217;SDS011;43078;52.972;6.482;2023-03-08T04:55:28;5.47;;;2.45;;
57217;SDS011;43078;52.972;6.482;2023-03-08T04:57:53;4.97;;;2.22;;
57217;SDS011;43078;52.972;6.482;2023-03-08T05:00:19;7.28;;;2.47;;
57217;SDS011;43078;52.972;6.482;2023-03-08T05:02:45;6.18;;;2.33;;
57217;SDS011;43078;52.972;6.482;2023-03-08T05:05:10;4.90;;;2.55;;
57217;SDS011;43078;52.972;6.482;2023-03-08T05:07:36;6.28;;;2.65;;
57217;SDS011;43078;52.972;6.482;2023-03-08T05:10:01;5.68;;;2.83;;
57217;SDS011;43078;52.972;6.482;2023-03-08T05:12:27;8.25;;;2.75;;
57217;SDS011;43078;52.972;6.482;2023-03-08T05:14:53;5.78;;;3.03;;
57217;SDS011;43078;52.972;6.482;2023-03-08T05:17:18;6.20;;;3.03;;
57217;SDS011;43078;52.972;6.482;2023-03-08T05:19:44;6.50;;;3.10;;
57217;SDS011;43078;52.972;6.482;2023-03-08T05:22:10;6.47;;;3.45;;
57217;SDS011;43078;52.972;6.482;2023-03-08T05:24:37;6.15;;;3.10;;
57217;SDS011;43078;52.972;6.482;2023-03-08T05:27:05;8.02;;;3.55;;
57217;SDS011;43078;52.972;6.482;2023-03-08T05:29:32;7.25;;;3.78;;
57217;SDS011;43078;52.972;6.482;2023-03-08T05:32:02;8.10;;;3.63;;
57217;SDS011;43078;52.972;6.482;2023-03-08T05:34:28;5.90;;;3.35;;
57217;SDS011;43078;52.972;6.482;2023-03-08T05:36:55;6.90;;;3.38;;
57217;SDS011;43078;52.972;6.482;2023-03-08T05:39:21;6.43;;;3.72;;
57217;SDS011;43078;52.972;6.482;2023-03-08T05:41:50;6.20;;;3.80;;
57217;SDS011;43078;52.972;6.482;2023-03-08T05:44:19;6.32;;;3.60;;
57217;SDS011;43078;52.972;6.482;2023-03-08T05:46:50;6.57;;;3.40;;
57217;SDS011;43078;52.972;6.482;2023-03-08T05:49:19;7.25;;;4.10;;
57217;SDS011;43078;52.972;6.482;2023-03-08T05:51:53;7.40;;;3.80;;
57217;SDS011;43078;52.972;6.482;2023-03-08T05:54:23;7.15;;;4.13;;
57217;SDS011;43078;52.972;6.482;2023-03-08T05:56:52;6.68;;;4.00;;
57217;SDS011;43078;52.972;6.482;2023-03-08T05:59:19;6.35;;;4.18;;
57217;SDS011;43078;52.972;6.482;2023-03-08T06:01:54;7.28;;;4.13;;
57217;SDS011;43078;52.972;6.482;2023-03-08T06:04:27;7.30;;;3.85;;
57217;SDS011;43078;52.972;6.482;2023-03-08T06:06:55;7.57;;;3.90;;
57217;SDS011;43078;52.972;6.482;2023-03-08T06:09:21;5.75;;;3.70;;
57217;SDS011;43078;52.972;6.482;2023-03-08T06:11:47;7.53;;;4.07;;
57217;SDS011;43078;52.972;6.482;2023-03-08T06:14:12;6.63;;;3.75;;
57217;SDS011;43078;52.972;6.482;2023-03-08T06:16:38;7.93;;;4.03;;
57217;SDS011;43078;52.972;6.482;2023-03-08T06:19:04;8.73;;;4.10;;
57217;SDS011;43078;52.972;6.482;2023-03-08T06:21:29;6.15;;;3.78;;
57217;SDS011;43078;52.972;6.482;2023-03-08T06:23:55;7.28;;;4.60;;
57217;SDS011;43078;52.972;6.482;2023-03-08T06:26:20;7.38;;;4.13;;
57217;SDS011;43078;52.972;6.482;2023-03-08T06:28:46;6.70;;;4.13;;
57217;SDS011;43078;52.972;6.482;2023-03-08T06:31:13;7.45;;;3.92;;
57217;SDS011;43078;52.972;6.482;2023-03-08T06:33:40;8.00;;;4.30;;
57217;SDS011;43078;52.972;6.482;2023-03-08T06:36:07;7.00;;;3.95;;
57217;SDS011;43078;52.972;6.482;2023-03-08T06:38:36;7.32;;;4.20;;
57217;SDS011;43078;52.972;6.482;2023-03-08T06:41:03;7.45;;;4.60;;
57217;SDS011;43078;52.972;6.482;2023-03-08T06:43:29;6.05;;;3.88;;
57217;SDS011;43078;52.972;6.482;2023-03-08T06:45:56;9.15;;;4.20;;
57217;SDS011;43078;52.972;6.482;2023-03-08T06:48:21;7.18;;;3.92;;
57217;SDS011;43078;52.972;6.482;2023-03-08T06:50:47;8.02;;;4.13;;
57217;SDS011;43078;52.972;6.482;2023-03-08T06:53:13;7.43;;;3.90;;
57217;SDS011;43078;52.972;6.482;2023-03-08T06:55:39;7.47;;;4.20;;
57217;SDS011;43078;52.972;6.482;2023-03-08T06:58:06;6.75;;;4.30;;
57217;SDS011;43078;52.972;6.482;2023-03-08T07:00:33;6.80;;;4.10;;
57217;SDS011;43078;52.972;6.482;2023-03-08T07:02:59;6.50;;;4.20;;
57217;SDS011;43078;52.972;6.482;2023-03-08T07:05:25;7.18;;;4.32;;
57217;SDS011;43078;52.972;6.482;2023-03-08T07:07:51;7.35;;;4.20;;
57217;SDS011;43078;52.972;6.482;2023-03-08T07:10:18;6.72;;;3.92;;
57217;SDS011;43078;52.972;6.482;2023-03-08T07:12:45;6.38;;;3.90;;
57217;SDS011;43078;52.972;6.482;2023-03-08T07:15:17;7.53;;;4.22;;
57217;SDS011;43078;52.972;6.482;2023-03-08T07:17:44;8.82;;;4.90;;
57217;SDS011;43078;52.972;6.482;2023-03-08T07:20:12;7.20;;;4.38;;
57217;SDS011;43078;52.972;6.482;2023-03-08T07:22:39;6.13;;;4.05;;
57217;SDS011;43078;52.972;6.482;2023-03-08T07:25:07;8.68;;;4.07;;
57217;SDS011;43078;52.972;6.482;2023-03-08T07:27:34;8.18;;;4.63;;
57217;SDS011;43078;52.972;6.482;2023-03-08T07:30:00;8.30;;;4.45;;
57217;SDS011;43078;52.972;6.482;2023-03-08T07:32:25;7.68;;;4.72;;
57217;SDS011;43078;52.972;6.482;2023-03-08T07:34:53;7.20;;;4.55;;
57217;SDS011;43078;52.972;6.482;2023-03-08T07:37:19;7.88;;;4.32;;
57217;SDS011;43078;52.972;6.482;2023-03-08T07:39:45;7.28;;;4.57;;
57217;SDS011;43078;52.972;6.482;2023-03-08T07:42:10;8.60;;;4.30;;
57217;SDS011;43078;52.972;6.482;2023-03-08T07:44:36;7.53;;;4.78;;
57217;SDS011;43078;52.972;6.482;2023-03-08T07:47:02;5.72;;;3.75;;
57217;SDS011;43078;52.972;6.482;2023-03-08T07:49:29;7.63;;;4.13;;
57217;SDS011;43078;52.972;6.482;2023-03-08T07:51:54;6.80;;;4.25;;
57217;SDS011;43078;52.972;6.482;2023-03-08T07:54:20;6.85;;;4.53;;
57217;SDS011;43078;52.972;6.482;2023-03-08T07:56:46;7.47;;;4.22;;
57217;SDS011;43078;52.972;6.482;2023-03-08T07:59:12;7.50;;;4.40;;
57217;SDS011;43078;52.972;6.482;2023-03-08T08:01:37;6.93;;;4.72;;
57217;SDS011;43078;52.972;6.482;2023-03-08T08:04:03;8.25;;;4.22;;
57217;SDS011;43078;52.972;6.482;2023-03-08T08:06:29;8.32;;;4.78;;
57217;SDS011;43078;52.972;6.482;2023-03-08T08:08:55;6.55;;;4.20;;
57217;SDS011;43078;52.972;6.482;2023-03-08T08:11:21;8.68;;;4.57;;
57217;SDS011;43078;52.972;6.482;2023-03-08T08:13:47;6.55;;;4.07;;
57217;SDS011;43078;52.972;6.482;2023-03-08T08:16:14;7.13;;;4.00;;
57217;SDS011;43078;52.972;6.482;2023-03-08T08:18:40;6.78;;;3.75;;
57217;SDS011;43078;52.972;6.482;2023-03-08T08:21:08;7.13;;;4.25;;
57217;SDS011;43078;52.972;6.482;2023-03-08T08:23:36;7.18;;;4.40;;
57217;SDS011;43078;52.972;6.482;2023-03-08T08:26:04;6.45;;;4.47;;
57217;SDS011;43078;52.972;6.482;2023-03-08T08:28:31;7.78;;;4.72;;
57217;SDS011;43078;52.972;6.482;2023-03-08T08:30:59;8.00;;;4.68;;
57217;SDS011;43078;52.972;6.482;2023-03-08T08:33:32;6.68;;;4.63;;
57217;SDS011;43078;52.972;6.482;2023-03-08T08:35:58;6.80;;;4.55;;
57217;SDS011;43078;52.972;6.482;2023-03-08T08:38:24;7.70;;;4.70;;
57217;SDS011;43078;52.972;6.482;2023-03-08T08:40:51;9.73;;;4.53;;
57217;SDS011;43078;52.972;6.482;2023-03-08T08:43:16;8.60;;;4.30;;
57217;SDS011;43078;52.972;6.482;2023-03-08T08:45:43;11.25;;;4.85;;
57217;SDS011;43078;52.972;6.482;2023-03-08T08:48:13;6.32;;;3.97;;
57217;SDS011;43078;52.972;6.482;2023-03-08T08:50:39;8.13;;;4.18;;
57217;SDS011;43078;52.972;6.482;2023-03-08T08:53:06;7.13;;;4.50;;
57217;SDS011;43078;52.972;6.482;2023-03-08T08:55:32;7.90;;;4.18;;
57217;SDS011;43078;52.972;6.482;2023-03-08T08:57:58;6.40;;;4.32;;
57217;SDS011;43078;52.972;6.482;2023-03-08T09:00:24;7.65;;;4.75;;
57217;SDS011;43078;52.972;6.482;2023-03-08T09:02:50;6.60;;;4.25;;
57217;SDS011;43078;52.972;6.482;2023-03-08T09:05:15;7.30;;;4.40;;
57217;SDS011;43078;52.972;6.482;2023-03-08T09:07:41;8.10;;;4.18;;
57217;SDS011;43078;52.972;6.482;2023-03-08T09:10:07;9.63;;;4.93;;
57217;SDS011;43078;52.972;6.482;2023-03-08T09:12:33;7.93;;;4.22;;
57217;SDS011;43078;52.972;6.482;2023-03-08T09:14:59;8.07;;;4.22;;
57217;SDS011;43078;52.972;6.482;2023-03-08T09:17:25;8.30;;;4.30;;
57217;SDS011;43078;52.972;6.482;2023-03-08T09:19:50;9.07;;;4.88;;
57217;SDS011;43078;52.972;6.482;2023-03-08T09:22:16;6.22;;;3.88;;
57217;SDS011;43078;52.972;6.482;2023-03-08T09:24:42;9.10;;;4.68;;
57217;SDS011;43078;52.972;6.482;2023-03-08T09:27:11;7.03;;;4.13;;
57217;SDS011;43078;52.972;6.482;2023-03-08T09:29:37;7.18;;;4.05;;
57217;SDS011;43078;52.972;6.482;2023-03-08T09:32:03;7.55;;;4.07;;
57217;SDS011;43078;52.972;6.482;2023-03-08T09:37:08;8.35;;;4.47;;
57217;SDS011;43078;52.972;6.482;2023-03-08T09:45:26;8.88;;;4.47;;
57217;SDS011;43078;52.972;6.482;2023-03-08T09:50:32;5.93;;;3.70;;
57217;SDS011;43078;52.972;6.482;2023-03-08T09:55:51;7.03;;;3.95;;
57217;SDS011;43078;52.972;6.482;2023-03-08T09:58:40;8.80;;;4.70;;
57217;SDS011;43078;52.972;6.482;2023-03-08T10:01:37;8.55;;;3.80;;
57217;SDS011;43078;52.972;6.482;2023-03-08T10:09:37;8.13;;;4.20;;
57217;SDS011;43078;52.972;6.482;2023-03-08T10:15:02;7.82;;;3.65;;
57217;SDS011;43078;52.972;6.482;2023-03-08T10:17:46;7.13;;;3.72;;
57217;SDS011;43078;52.972;6.482;2023-03-08T10:20:30;6.65;;;3.47;;
57217;SDS011;43078;52.972;6.482;2023-03-08T10:23:15;6.60;;;3.78;;
57217;SDS011;43078;52.972;6.482;2023-03-08T10:25:49;8.20;;;3.70;;
57217;SDS011;43078;52.972;6.482;2023-03-08T10:28:21;8.57;;;3.53;;
57217;SDS011;43078;52.972;6.482;2023-03-08T10:30:53;7.22;;;3.50;;
57217;SDS011;43078;52.972;6.482;2023-03-08T10:33:32;5.55;;;3.20;;
57217;SDS011;43078;52.972;6.482;2023-03-08T10:36:06;6.38;;;3.42;;
57217;SDS011;43078;52.972;6.482;2023-03-08T10:38:41;6.25;;;3.60;;
57217;SDS011;43078;52.972;6.482;2023-03-08T10:41:11;6.80;;;3.05;;
57217;SDS011;43078;52.972;6.482;2023-03-08T10:43:44;5.80;;;3.10;;
57217;SDS011;43078;52.972;6.482;2023-03-08T10:46:16;7.75;;;3.10;;
57217;SDS011;43078;52.972;6.482;2023-03-08T10:48:44;6.60;;;3.40;;
57217;SDS011;43078;52.972;6.482;2023-03-08T10:51:18;6.28;;;3.20;;
57217;SDS011;43078;52.972;6.482;2023-03-08T10:53:52;8.05;;;3.40;;
57217;SDS011;43078;52.972;6.482;2023-03-08T10:56:37;6.38;;;3.60;;
57217;SDS011;43078;52.972;6.482;2023-03-08T11:36:04;5.75;;;2.55;;
57217;SDS011;43078;52.972;6.482;2023-03-08T11:38:40;6.25;;;2.30;;
57217;SDS011;43078;52.972;6.482;2023-03-08T11:44:02;4.97;;;2.20;;
57217;SDS011;43078;52.972;6.482;2023-03-08T11:55:14;3.95;;;2.08;;
57217;SDS011;43078;52.972;6.482;2023-03-08T11:57:48;4.95;;;2.13;;
57217;SDS011;43078;52.972;6.482;2023-03-08T12:00:23;4.55;;;2.25;;
57217;SDS011;43078;52.972;6.482;2023-03-08T12:02:58;4.65;;;1.90;;
57217;SDS011;43078;52.972;6.482;2023-03-08T12:05:34;5.18;;;2.03;;
57217;SDS011;43078;52.972;6.482;2023-03-08T12:08:04;5.82;;;2.20;;
57217;SDS011;43078;52.972;6.482;2023-03-08T12:10:47;6.68;;;1.75;;
57217;SDS011;43078;52.972;6.482;2023-03-08T12:13:34;4.75;;;1.83;;
57217;SDS011;43078;52.972;6.482;2023-03-08T12:26:39;4.30;;;1.77;;
57217;SDS011;43078;52.972;6.482;2023-03-08T12:29:15;5.40;;;1.83;;
57217;SDS011;43078;52.972;6.482;2023-03-08T12:31:47;3.78;;;1.75;;
57217;SDS011;43078;52.972;6.482;2023-03-08T12:37:03;4.72;;;1.80;;
57217;SDS011;43078;52.972;6.482;2023-03-08T12:39:53;5.35;;;1.77;;
57217;SDS011;43078;52.972;6.482;2023-03-08T12:42:50;5.03;;;1.80;;
57217;SDS011;43078;52.972;6.482;2023-03-08T12:45:26;6.13;;;2.10;;
57217;SDS011;43078;52.972;6.482;2023-03-08T12:50:40;3.85;;;1.58;;
57217;SDS011;43078;52.972;6.482;2023-03-08T12:53:23;3.95;;;1.65;;
57217;SDS011;43078;52.972;6.482;2023-03-08T12:56:00;4.10;;;1.60;;
57217;SDS011;43078;52.972;6.482;2023-03-08T12:58:45;3.85;;;1.67;;
57217;SDS011;43078;52.972;6.482;2023-03-08T13:01:28;5.60;;;1.70;;
57217;SDS011;43078;52.972;6.482;2023-03-08T13:03:55;5.53;;;2.20;;
57217;SDS011;43078;52.972;6.482;2023-03-08T13:08:54;6.07;;;1.85;;
57217;SDS011;43078;52.972;6.482;2023-03-08T13:11:24;5.93;;;2.13;;
57217;SDS011;43078;52.972;6.482;2023-03-08T13:14:01;4.07;;;1.88;;
57217;SDS011;43078;52.972;6.482;2023-03-08T13:16:30;5.55;;;2.25;;
57217;SDS011;43078;52.972;6.482;2023-03-08T13:19:05;7.30;;;1.80;;
57217;SDS011;43078;52.972;6.482;2023-03-08T13:21:39;5.60;;;2.40;;
57217;SDS011;43078;52.972;6.482;2023-03-08T13:26:45;8.85;;;2.30;;
57217;SDS011;43078;52.972;6.482;2023-03-08T13:29:30;4.28;;;1.80;;
57217;SDS011;43078;52.972;6.482;2023-03-08T13:31:57;6.03;;;2.15;;
57217;SDS011;43078;52.972;6.482;2023-03-08T13:34:56;3.47;;;1.70;;
57217;SDS011;43078;52.972;6.482;2023-03-08T13:37:24;6.10;;;1.80;;
57217;SDS011;43078;52.972;6.482;2023-03-08T13:39:52;5.35;;;1.92;;
57217;SDS011;43078;52.972;6.482;2023-03-08T13:42:19;6.35;;;1.85;;
57217;SDS011;43078;52.972;6.482;2023-03-08T13:45:15;6.75;;;1.90;;
57217;SDS011;43078;52.972;6.482;2023-03-08T13:47:40;4.22;;;1.67;;
57217;SDS011;43078;52.972;6.482;2023-03-08T13:50:15;5.00;;;1.67;;
57217;SDS011;43078;52.972;6.482;2023-03-08T13:52:45;6.50;;;2.15;;
57217;SDS011;43078;52.972;6.482;2023-03-08T13:55:14;4.43;;;1.83;;
57217;SDS011;43078;52.972;6.482;2023-03-08T13:57:46;7.03;;;2.00;;
57217;SDS011;43078;52.972;6.482;2023-03-08T14:00:20;7.28;;;1.95;;
57217;SDS011;43078;52.972;6.482;2023-03-08T14:02:55;4.88;;;1.60;;
57217;SDS011;43078;52.972;6.482;2023-03-08T14:05:23;4.32;;;1.77;;
57217;SDS011;43078;52.972;6.482;2023-03-08T14:07:58;4.70;;;2.00;;
57217;SDS011;43078;52.972;6.482;2023-03-08T14:10:33;6.00;;;1.83;;
57217;SDS011;43078;52.972;6.482;2023-03-08T14:13:02;5.65;;;1.80;;
57217;SDS011;43078;52.972;6.482;2023-03-08T14:15:38;5.20;;;1.63;;
57217;SDS011;43078;52.972;6.482;2023-03-08T14:18:04;3.72;;;1.50;;
57217;SDS011;43078;52.972;6.482;2023-03-08T14:20:32;5.35;;;2.05;;
57217;SDS011;43078;52.972;6.482;2023-03-08T14:23:01;4.95;;;2.10;;
57217;SDS011;43078;52.972;6.482;2023-03-08T14:25:28;5.05;;;2.10;;
57217;SDS011;43078;52.972;6.482;2023-03-08T14:30:31;5.45;;;1.92;;
57217;SDS011;43078;52.972;6.482;2023-03-08T14:38:16;5.65;;;2.38;;
57217;SDS011;43078;52.972;6.482;2023-03-08T14:53:55;5.85;;;3.13;;
57217;SDS011;43078;52.972;6.482;2023-03-08T14:56:30;8.75;;;3.10;;
57217;SDS011;43078;52.972;6.482;2023-03-08T14:58:57;7.70;;;2.92;;
57217;SDS011;43078;52.972;6.482;2023-03-08T15:01:29;6.68;;;3.33;;
57217;SDS011;43078;52.972;6.482;2023-03-08T15:03:58;6.28;;;2.95;;
57217;SDS011;43078;52.972;6.482;2023-03-08T15:06:30;7.38;;;3.20;;
57217;SDS011;43078;52.972;6.482;2023-03-08T15:08:58;7.93;;;3.35;;
57217;SDS011;43078;52.972;6.482;2023-03-08T15:11:25;7.80;;;3.88;;
57217;SDS011;43078;52.972;6.482;2023-03-08T15:13:55;6.80;;;3.55;;
57217;SDS011;43078;52.972;6.482;2023-03-08T15:16:22;6.50;;;3.25;;
57217;SDS011;43078;52.972;6.482;2023-03-08T15:18:49;7.47;;;3.33;;
57217;SDS011;43078;52.972;6.482;2023-03-08T15:21:17;5.95;;;3.45;;
57217;SDS011;43078;52.972;6.482;2023-03-08T15:26:24;6.25;;;3.35;;
57217;SDS011;43078;52.972;6.482;2023-03-08T15:31:28;7.13;;;3.25;;
57217;SDS011;43078;52.972;6.482;2023-03-08T15:40:11;9.43;;;4.10;;
57217;SDS011;43078;52.972;6.482;2023-03-08T15:52:06;6.78;;;2.92;;
57217;SDS011;43078;52.972;6.482;2023-03-08T16:11:45;6.80;;;2.65;;
57217;SDS011;43078;52.972;6.482;2023-03-08T16:26:34;5.85;;;3.10;;
57217;SDS011;43078;52.972;6.482;2023-03-08T16:29:00;7.07;;;3.30;;
57217;SDS011;43078;52.972;6.482;2023-03-08T16:31:25;6.38;;;3.05;;
57217;SDS011;43078;52.972;6.482;2023-03-08T16:33:51;9.95;;;3.30;;
57217;SDS011;43078;52.972;6.482;2023-03-08T16:36:17;8.85;;;4.40;;
57217;SDS011;43078;52.972;6.482;2023-03-08T16:38:43;8.30;;;3.92;;
57217;SDS011;43078;52.972;6.482;2023-03-08T16:41:09;7.88;;;3.58;;
57217;SDS011;43078;52.972;6.482;2023-03-08T16:43:35;7.03;;;3.75;;
57217;SDS011;43078;52.972;6.482;2023-03-08T16:46:01;6.13;;;3.65;;
57217;SDS011;43078;52.972;6.482;2023-03-08T16:48:27;11.82;;;3.80;;
57217;SDS011;43078;52.972;6.482;2023-03-08T16:50:54;7.63;;;3.72;;
57217;SDS011;43078;52.972;6.482;2023-03-08T16:53:23;6.15;;;3.42;;
57217;SDS011;43078;52.972;6.482;2023-03-08T16:55:51;7.38;;;3.90;;
57217;SDS011;43078;52.972;6.482;2023-03-08T16:58:18;7.75;;;3.85;;
57217;SDS011;43078;52.972;6.482;2023-03-08T17:00:44;11.00;;;4.82;;
57217;SDS011;43078;52.972;6.482;2023-03-08T17:03:09;7.82;;;4.15;;
57217;SDS011;43078;52.972;6.482;2023-03-08T17:05:39;8.35;;;4.15;;
57217;SDS011;43078;52.972;6.482;2023-03-08T17:08:06;7.85;;;4.30;;
57217;SDS011;43078;52.972;6.482;2023-03-08T17:10:36;7.60;;;4.30;;
57217;SDS011;43078;52.972;6.482;2023-03-08T17:13:03;9.55;;;4.15;;
57217;SDS011;43078;52.972;6.482;2023-03-08T17:15:28;9.50;;;4.25;;
57217;SDS011;43078;52.972;6.482;2023-03-08T17:17:54;9.05;;;4.53;;
57217;SDS011;43078;52.972;6.482;2023-03-08T17:20:21;7.80;;;4.55;;
57217;SDS011;43078;52.972;6.482;2023-03-08T17:25:31;9.88;;;4.95;;
57217;SDS011;43078;52.972;6.482;2023-03-08T17:27:59;9.02;;;4.70;;
57217;SDS011;43078;52.972;6.482;2023-03-08T17:30:29;9.45;;;5.03;;
57217;SDS011;43078;52.972;6.482;2023-03-08T17:33:01;10.82;;;5.55;;
57217;SDS011;43078;52.972;6.482;2023-03-08T17:36:10;10.07;;;5.18;;
57217;SDS011;43078;52.972;6.482;2023-03-08T17:41:33;9.95;;;5.00;;
57217;SDS011;43078;52.972;6.482;2023-03-08T17:44:01;12.40;;;5.38;;
57217;SDS011;43078;52.972;6.482;2023-03-08T17:46:27;9.13;;;4.97;;
57217;SDS011;43078;52.972;6.482;2023-03-08T17:48:53;11.15;;;5.50;;
57217;SDS011;43078;52.972;6.482;2023-03-08T17:51:20;10.50;;;5.43;;
57217;SDS011;43078;52.972;6.482;2023-03-08T17:53:48;11.35;;;5.70;;
57217;SDS011;43078;52.972;6.482;2023-03-08T17:56:15;10.18;;;5.53;;
57217;SDS011;43078;52.972;6.482;2023-03-08T17:58:45;12.10;;;5.65;;
57217;SDS011;43078;52.972;6.482;2023-03-08T18:01:21;9.43;;;5.40;;
57217;SDS011;43078;52.972;6.482;2023-03-08T18:03:49;10.55;;;5.55;;
57217;SDS011;43078;52.972;6.482;2023-03-08T18:06:17;10.10;;;5.97;;
57217;SDS011;43078;52.972;6.482;2023-03-08T18:08:45;11.48;;;5.88;;
57217;SDS011;43078;52.972;6.482;2023-03-08T18:11:11;9.05;;;5.80;;
57217;SDS011;43078;52.972;6.482;2023-03-08T18:13:37;11.15;;;5.78;;
57217;SDS011;43078;52.972;6.482;2023-03-08T18:16:02;12.90;;;5.60;;
57217;SDS011;43078;52.972;6.482;2023-03-08T18:18:29;9.35;;;5.40;;
57217;SDS011;43078;52.972;6.482;2023-03-08T18:20:55;10.15;;;5.45;;
57217;SDS011;43078;52.972;6.482;2023-03-08T18:23:21;8.18;;;5.45;;
57217;SDS011;43078;52.972;6.482;2023-03-08T18:25:48;10.65;;;5.65;;
57217;SDS011;43078;52.972;6.482;2023-03-08T18:28:14;9.30;;;5.35;;
57217;SDS011;43078;52.972;6.482;2023-03-08T18:30:40;11.15;;;5.63;;
57217;SDS011;43078;52.972;6.482;2023-03-08T18:33:05;10.38;;;5.80;;
57217;SDS011;43078;52.972;6.482;2023-03-08T18:35:31;10.70;;;5.88;;
57217;SDS011;43078;52.972;6.482;2023-03-08T18:37:57;9.88;;;5.75;;
57217;SDS011;43078;52.972;6.482;2023-03-08T18:40:22;10.40;;;6.47;;
57217;SDS011;43078;52.972;6.482;2023-03-08T18:42:48;11.43;;;5.68;;
57217;SDS011;43078;52.972;6.482;2023-03-08T18:45:14;12.68;;;6.05;;
57217;SDS011;43078;52.972;6.482;2023-03-08T18:47:41;10.30;;;6.38;;
57217;SDS011;43078;52.972;6.482;2023-03-08T18:50:06;9.93;;;6.22;;